createdAt,value
2018-03-02T00:02:26.207Z,93091.77
2018-03-02T00:04:53.777Z,93095.47
2018-03-02T00:07:21.395Z,93086.45
2018-03-02T00:09:48.972Z,93080.75
2018-03-02T00:12:16.562Z,93082.86
2018-03-02T00:14:44.138Z,93082.05
2018-03-02T00:17:11.690Z,93075.05
2018-03-02T00:19:39.233Z,93077.97
2018-03-02T00:22:06.824Z,93071.44
2018-03-02T00:24:34.367Z,93054.70
2018-03-02T00:27:01.943Z,93065.27
2018-03-02T00:29:29.676Z,93064.44
2018-03-02T00:31:57.224Z,93048.02
2018-03-02T00:34:24.823Z,93056.13
2018-03-02T00:36:52.511Z,93066.75
2018-03-02T00:39:20.083Z,93067.92
2018-03-02T00:41:47.653Z,93070.36
2018-03-02T00:44:15.237Z,93060.16
2018-03-02T00:46:42.779Z,93049.97
2018-03-02T00:49:10.334Z,93032.41
2018-03-02T00:51:38.073Z,93040.55
2018-03-02T00:54:05.632Z,93038.52
2018-03-02T00:56:33.187Z,93036.91
2018-03-02T00:59:00.747Z,93028.72
2018-03-02T01:01:28.315Z,93035.61
2018-03-02T01:03:56.045Z,93021.69
2018-03-02T01:06:23.599Z,93027.39
2018-03-02T01:08:51.165Z,93021.60
2018-03-02T01:11:19.033Z,93028.97
2018-03-02T01:13:46.573Z,93010.99
2018-03-02T01:16:14.120Z,93006.48
2018-03-02T01:18:41.749Z,93012.55
2018-03-02T01:21:09.297Z,93008.49
2018-03-02T01:23:36.850Z,93008.09
2018-03-02T01:26:04.486Z,93005.22
2018-03-02T01:28:32.074Z,92998.30
2018-03-02T01:30:59.626Z,92992.57
2018-03-02T01:33:27.270Z,93001.95
2018-03-02T01:35:54.826Z,92995.00
2018-03-02T01:38:22.406Z,92999.48
2018-03-02T01:40:50.163Z,92989.27
2018-03-02T01:43:17.711Z,92985.94
2018-03-02T01:45:45.277Z,92991.70
2018-03-02T01:48:12.952Z,92990.92
2018-03-02T01:50:40.940Z,92986.78
2018-03-02T01:53:08.489Z,92990.07
2018-03-02T01:55:36.068Z,92985.97
2018-03-02T01:58:03.647Z,92986.38
2018-03-02T02:00:31.186Z,92975.36
2018-03-02T02:02:58.899Z,92971.70
2018-03-02T02:05:26.488Z,92963.53
2018-03-02T02:07:54.039Z,92963.10
2018-03-02T02:10:22.092Z,92971.72
2018-03-02T02:12:49.645Z,92963.91
2018-03-02T02:15:17.205Z,92973.66
2018-03-02T02:17:45.073Z,92962.16
2018-03-02T02:20:12.621Z,92953.19
2018-03-02T02:22:40.175Z,92955.61
2018-03-02T02:25:07.798Z,92951.55
2018-03-02T02:27:35.384Z,92947.45
2018-03-02T02:30:03.642Z,92935.61
2018-03-02T02:32:31.242Z,92944.55
2018-03-02T02:34:58.802Z,92942.53
2018-03-02T02:37:26.383Z,92953.97
2018-03-02T02:39:54.591Z,92947.43
2018-03-02T02:42:22.152Z,92952.33
2018-03-02T02:44:49.696Z,92933.58
2018-03-02T02:47:17.475Z,92933.92
2018-03-02T02:49:45.311Z,92932.31
2018-03-02T02:52:12.877Z,92927.83
2018-03-02T02:54:40.697Z,92915.59
2018-03-02T02:57:08.259Z,92930.27
2018-03-02T02:59:35.813Z,92923.30
2018-03-02T03:02:03.542Z,92926.56
2018-03-02T03:04:31.110Z,92922.85
2018-03-02T03:06:58.655Z,92913.84
2018-03-02T03:09:26.256Z,92917.86
2018-03-02T03:11:53.797Z,92906.89
2018-03-02T03:14:21.342Z,92912.95
2018-03-02T03:16:49.126Z,92900.72
2018-03-02T03:19:16.693Z,92907.25
2018-03-02T03:21:44.238Z,92909.62
2018-03-02T03:24:12.103Z,92906.80
2018-03-02T03:26:39.647Z,92892.53
2018-03-02T03:29:07.214Z,92890.02
2018-03-02T03:31:34.813Z,92895.73
2018-03-02T03:34:02.362Z,92894.90
2018-03-02T03:36:29.901Z,92897.41
2018-03-02T03:38:57.494Z,92895.75
2018-03-02T03:41:25.037Z,92883.91
2018-03-02T03:43:52.582Z,92884.72
2018-03-02T03:46:20.156Z,92887.55
2018-03-02T03:48:47.705Z,92876.13
2018-03-02T03:51:15.273Z,92878.14
2018-03-02T03:53:42.952Z,92877.31
2018-03-02T03:56:10.501Z,92881.41
2018-03-02T03:58:38.059Z,92876.05
2018-03-02T04:01:05.654Z,92867.91
2018-03-02T04:03:33.193Z,92876.91
2018-03-02T04:06:00.754Z,92868.35
2018-03-02T04:08:28.338Z,92877.69
2018-03-02T04:10:55.903Z,92879.67
2018-03-02T04:13:23.443Z,92872.75
2018-03-02T04:15:51.170Z,92870.27
2018-03-02T04:18:18.722Z,92869.88
2018-03-02T04:20:46.274Z,92869.52
2018-03-02T04:23:13.857Z,92869.93
2018-03-02T04:25:41.406Z,92862.55
2018-03-02T04:28:08.950Z,92859.70
2018-03-02T04:30:36.574Z,92862.58
2018-03-02T04:33:04.118Z,92849.55
2018-03-02T04:35:31.671Z,92852.88
2018-03-02T04:37:59.402Z,92860.63
2018-03-02T04:40:26.955Z,92858.22
2018-03-02T04:42:54.503Z,92862.73
2018-03-02T04:45:22.231Z,92841.12
2018-03-02T04:47:49.781Z,92846.00
2018-03-02T04:50:17.332Z,92836.28
2018-03-02T04:52:44.932Z,92830.59
2018-03-02T04:55:12.477Z,92835.11
2018-03-02T04:57:40.039Z,92855.06
2018-03-02T05:00:07.630Z,92846.45
2018-03-02T05:02:35.192Z,92850.09
2018-03-02T05:05:02.741Z,92862.35
2018-03-02T05:07:30.355Z,92864.42
2018-03-02T05:09:57.913Z,92861.55
2018-03-02T05:12:25.469Z,92844.41
2018-03-02T05:14:53.127Z,92853.83
2018-03-02T05:17:20.649Z,92837.13
2018-03-02T05:19:48.205Z,92844.09
2018-03-02T05:22:15.802Z,92827.78
2018-03-02T05:24:43.358Z,92833.49
2018-03-02T05:27:10.908Z,92827.00
2018-03-02T05:29:38.830Z,92827.43
2018-03-02T05:32:06.382Z,92817.71
2018-03-02T05:34:33.946Z,92836.91
2018-03-02T05:37:01.742Z,92824.30
2018-03-02T05:39:29.297Z,92826.38
2018-03-02T05:41:56.852Z,92825.98
2018-03-02T05:44:24.426Z,92833.75
2018-03-02T05:46:52.008Z,92828.47
2018-03-02T05:49:19.570Z,92842.39
2018-03-02T05:51:47.248Z,92819.10
2018-03-02T05:54:14.792Z,92828.13
2018-03-02T05:56:42.346Z,92830.56
2018-03-02T05:59:09.897Z,92820.83
2018-03-02T06:01:37.437Z,92825.71
2018-03-02T06:04:05.018Z,92813.04
2018-03-02T06:06:32.593Z,92822.47
2018-03-02T06:09:00.145Z,92827.78
2018-03-02T06:11:27.889Z,92820.03
2018-03-02T06:13:55.438Z,92813.11
2018-03-02T06:16:22.987Z,92823.30
2018-03-02T06:18:50.585Z,92818.84
2018-03-02T06:21:18.138Z,92816.41
2018-03-02T06:23:45.685Z,92805.39
2018-03-02T06:26:13.276Z,92811.94
2018-03-02T06:28:40.862Z,92809.47
2018-03-02T06:31:08.421Z,92805.41
2018-03-02T06:33:36.468Z,92809.50
2018-03-02T06:36:04.026Z,92796.39
2018-03-02T06:38:31.586Z,92791.89
2018-03-02T06:40:59.320Z,92799.23
2018-03-02T06:43:26.870Z,92792.70
2018-03-02T06:45:54.418Z,92789.42
2018-03-02T06:48:22.109Z,92793.88
2018-03-02T06:50:49.744Z,92781.14
2018-03-02T06:53:17.282Z,92779.04
2018-03-02T06:55:45.027Z,92779.39
2018-03-02T06:58:12.580Z,92776.92
2018-03-02T07:00:40.140Z,92775.22
2018-03-02T07:03:07.725Z,92766.14
2018-03-02T07:05:35.265Z,92769.38
2018-03-02T07:08:02.812Z,92766.08
2018-03-02T07:10:30.409Z,92770.48
2018-03-02T07:12:57.973Z,92778.80
2018-03-02T07:15:25.521Z,92755.36
2018-03-02T07:17:53.115Z,92760.66
2018-03-02T07:20:20.661Z,92769.01
2018-03-02T07:22:48.215Z,92752.59
2018-03-02T07:25:15.810Z,92760.34
2018-03-02T07:27:43.360Z,92752.22
2018-03-02T07:30:10.913Z,92760.45
2018-03-02T07:32:38.658Z,92757.55
2018-03-02T07:35:06.201Z,92760.44
2018-03-02T07:37:33.760Z,92768.57
2018-03-02T07:40:01.362Z,92768.92
2018-03-02T07:42:28.925Z,92764.36
2018-03-02T07:44:56.475Z,92752.05
2018-03-02T07:47:24.369Z,92761.44
2018-03-02T07:49:51.946Z,92755.95
2018-03-02T07:52:19.506Z,92757.95
2018-03-02T07:54:47.234Z,92762.84
2018-03-02T07:57:14.798Z,92756.62
2018-03-02T07:59:42.350Z,92760.84
2018-03-02T08:02:09.964Z,92768.13
2018-03-02T08:04:37.513Z,92754.48
2018-03-02T08:07:05.067Z,92759.41
2018-03-02T08:09:32.833Z,92747.38
2018-03-02T08:12:00.411Z,92752.65
2018-03-02T08:14:27.975Z,92753.77
2018-03-02T08:16:55.715Z,92748.80
2018-03-02T08:19:23.274Z,92727.05
2018-03-02T08:21:50.817Z,92734.56
2018-03-02T08:24:18.563Z,92734.24
2018-03-02T08:26:46.136Z,92736.58
2018-03-02T08:29:13.669Z,92740.91
2018-03-02T08:31:41.411Z,92732.00
2018-03-02T08:34:08.989Z,92741.64
2018-03-02T08:36:36.530Z,92738.91
2018-03-02T08:39:04.237Z,92735.55
2018-03-02T08:41:31.798Z,92746.56
2018-03-02T08:43:59.385Z,92747.66
2018-03-02T08:46:26.988Z,92743.78
2018-03-02T08:48:54.536Z,92739.05
2018-03-02T08:51:22.092Z,92740.11
2018-03-02T08:53:49.686Z,92733.45
2018-03-02T08:56:17.252Z,92728.39
2018-03-02T08:58:44.802Z,92738.02
2018-03-02T09:01:12.491Z,92739.98
2018-03-02T09:03:40.033Z,92723.91
2018-03-02T09:06:07.584Z,92727.44
2018-03-02T09:08:35.258Z,92708.41
2018-03-02T09:11:02.797Z,92717.33
2018-03-02T09:13:30.365Z,92711.67
2018-03-02T09:15:57.963Z,92720.99
2018-03-02T09:18:25.549Z,92726.30
2018-03-02T09:20:53.102Z,92719.51
2018-03-02T09:23:20.675Z,92712.73
2018-03-02T09:25:48.269Z,92716.44
2018-03-02T09:28:15.822Z,92703.89
2018-03-02T09:30:43.405Z,92692.05
2018-03-02T09:33:10.946Z,92689.09
2018-03-02T09:35:38.572Z,92713.97
2018-03-02T09:38:06.204Z,92690.57
2018-03-02T09:40:33.758Z,92692.02
2018-03-02T09:43:01.307Z,92703.39
2018-03-02T09:45:28.927Z,92704.71
2018-03-02T09:47:56.527Z,92695.41
2018-03-02T09:50:24.082Z,92706.93
2018-03-02T09:52:51.808Z,92692.47
2018-03-02T09:55:19.373Z,92697.05
2018-03-02T09:57:46.946Z,92687.81
2018-03-02T10:00:15.119Z,92685.98
2018-03-02T10:02:42.664Z,92687.91
2018-03-02T10:05:10.204Z,92679.95
2018-03-02T10:07:37.830Z,92684.86
2018-03-02T10:10:05.395Z,92674.69
2018-03-02T10:12:32.952Z,92672.89
2018-03-02T10:15:00.695Z,92671.74
2018-03-02T10:17:28.247Z,92659.94
2018-03-02T10:19:55.795Z,92661.33
2018-03-02T10:22:23.376Z,92654.77
2018-03-02T10:24:50.965Z,92660.86
2018-03-02T10:27:18.533Z,92658.06
2018-03-02T10:29:46.266Z,92654.85
2018-03-02T10:32:13.815Z,92638.56
2018-03-02T10:34:41.349Z,92648.53
2018-03-02T10:37:09.070Z,92635.73
2018-03-02T10:39:36.635Z,92615.39
2018-03-02T10:42:04.219Z,92619.16
2018-03-02T10:44:32.154Z,92622.54
2018-03-02T10:46:59.724Z,92608.48
2018-03-02T10:49:27.274Z,92612.09
2018-03-02T10:51:54.861Z,92606.97
2018-03-02T10:54:22.409Z,92604.72
2018-03-02T10:56:49.969Z,92597.95
2018-03-02T10:59:17.505Z,92589.25
2018-03-02T11:01:50.652Z,92589.38
2018-03-02T11:04:18.446Z,92578.11
2018-03-02T11:06:45.992Z,92566.78
2018-03-02T11:09:13.552Z,92571.21
2018-03-02T11:11:41.132Z,92580.50
2018-03-02T11:14:08.710Z,92570.55
2018-03-02T11:16:36.259Z,92563.92
2018-03-02T11:19:03.866Z,92563.58
2018-03-02T11:21:31.425Z,92569.13
2018-03-02T11:23:58.990Z,92546.81
2018-03-02T11:26:26.732Z,92561.30
2018-03-02T11:28:54.284Z,92557.24
2018-03-02T11:31:21.837Z,92542.58
2018-03-02T11:33:49.714Z,92546.50
2018-03-02T11:36:17.275Z,92526.58
2018-03-02T11:38:44.830Z,92519.77
2018-03-02T11:41:12.578Z,92521.85
2018-03-02T11:43:40.161Z,92513.94
2018-03-02T11:46:07.724Z,92495.44
2018-03-02T11:48:35.465Z,92511.31
2018-03-02T11:51:03.022Z,92507.28
2018-03-02T11:53:30.603Z,92491.66
2018-03-02T11:55:58.508Z,92491.92
2018-03-02T11:58:26.058Z,92493.42
2018-03-02T12:00:53.644Z,92490.45
2018-03-02T12:03:21.582Z,92487.31
2018-03-02T12:05:49.130Z,92498.44
2018-03-02T12:08:16.683Z,92493.13
2018-03-02T12:10:44.262Z,92488.50
2018-03-02T12:13:11.812Z,92480.34
2018-03-02T12:15:39.367Z,92496.31
2018-03-02T12:18:07.049Z,92471.91
2018-03-02T12:20:34.596Z,92485.84
2018-03-02T12:23:02.157Z,92459.69
2018-03-02T12:25:29.843Z,92452.33
2018-03-02T12:27:57.393Z,92452.22
2018-03-02T12:30:25.848Z,92446.16
2018-03-02T12:32:53.600Z,92441.90
2018-03-02T12:35:21.145Z,92440.23
2018-03-02T12:37:48.746Z,92440.72
2018-03-02T12:40:16.335Z,92435.34
2018-03-02T12:42:43.903Z,92412.39
2018-03-02T12:45:11.512Z,92415.44
2018-03-02T12:47:39.242Z,92421.23
2018-03-02T12:50:06.792Z,92412.20
2018-03-02T12:52:34.363Z,92407.69
2018-03-02T12:55:02.089Z,92397.62
2018-03-02T12:57:29.660Z,92396.78
2018-03-02T12:59:57.231Z,92401.48
2018-03-02T13:02:24.838Z,92413.74
2018-03-02T13:04:52.395Z,92392.09
2018-03-02T13:07:19.978Z,92392.27
2018-03-02T13:09:47.879Z,92390.30
2018-03-02T13:12:15.431Z,92387.23
2018-03-02T13:14:43.011Z,92376.47
2018-03-02T13:17:11.426Z,92394.51
2018-03-02T13:19:38.983Z,92375.70
2018-03-02T13:25:07.811Z,92377.96
2018-03-02T13:27:46.999Z,92379.89
2018-03-02T13:30:14.568Z,92376.23
2018-03-02T13:32:43.043Z,92363.47
2018-03-02T13:35:12.675Z,92367.03
2018-03-02T13:37:40.243Z,92372.77
2018-03-02T13:40:19.490Z,92371.55
2018-03-02T13:42:47.065Z,92360.35
2018-03-02T13:45:14.615Z,92372.09
2018-03-02T13:50:42.344Z,92349.49
2018-03-02T13:53:09.950Z,92348.52
2018-03-02T13:55:37.510Z,92351.83
2018-03-02T13:58:05.832Z,92361.82
2018-03-02T14:00:33.426Z,92367.39
2018-03-02T14:03:13.235Z,92374.36
2018-03-02T14:05:40.989Z,92360.70
2018-03-02T14:08:08.530Z,92353.19
2018-03-02T14:10:36.140Z,92347.75
2018-03-02T14:13:04.049Z,92345.41
2018-03-02T14:15:31.601Z,92335.77
2018-03-02T14:17:59.163Z,92348.42
2018-03-02T14:20:26.851Z,92346.69
2018-03-02T14:22:54.410Z,92350.89
2018-03-02T14:25:21.961Z,92329.55
2018-03-02T14:27:49.532Z,92348.95
2018-03-02T14:30:17.098Z,92330.24
2018-03-02T14:32:44.662Z,92325.30
2018-03-02T14:35:12.262Z,92325.09
2018-03-02T14:37:39.824Z,92324.33
2018-03-02T14:40:07.371Z,92305.06
2018-03-02T14:42:35.169Z,92306.70
2018-03-02T14:45:02.724Z,92297.99
2018-03-02T14:47:30.290Z,92308.86
2018-03-02T14:49:58.031Z,92279.33
2018-03-02T14:52:25.601Z,92283.27
2018-03-02T14:54:53.164Z,92284.71
2018-03-02T14:57:20.929Z,92292.56
2018-03-02T14:59:48.500Z,92292.09
2018-03-02T15:02:16.047Z,92285.89
2018-03-02T15:04:43.669Z,92284.42
2018-03-02T15:07:11.226Z,92294.75
2018-03-02T15:09:38.786Z,92275.81
2018-03-02T15:12:06.970Z,92289.33
2018-03-02T15:14:34.521Z,92268.73
2018-03-02T15:17:02.077Z,92287.09
2018-03-02T15:19:29.658Z,92274.73
2018-03-02T15:21:57.217Z,92290.52
2018-03-02T15:24:24.762Z,92280.70
2018-03-02T15:26:52.645Z,92290.89
2018-03-02T15:29:20.197Z,92277.80
2018-03-02T15:31:47.756Z,92277.82
2018-03-02T15:34:15.361Z,92251.19
2018-03-02T15:36:42.919Z,92269.06
2018-03-02T15:39:10.516Z,92281.15
2018-03-02T15:41:38.110Z,92275.79
2018-03-02T15:44:05.676Z,92286.83
2018-03-02T15:46:33.322Z,92290.73
2018-03-02T15:49:01.058Z,92281.80
2018-03-02T15:51:28.607Z,92272.83
2018-03-02T15:53:56.215Z,92271.30
2018-03-02T15:56:23.827Z,92283.31
2018-03-02T15:58:51.376Z,92267.68
2018-03-02T16:01:18.956Z,92273.91
2018-03-02T16:03:46.723Z,92270.25
2018-03-02T16:06:14.286Z,92277.67
2018-03-02T16:08:41.869Z,92270.45
2018-03-02T16:11:09.529Z,92273.44
2018-03-02T16:13:37.102Z,92259.22
2018-03-02T16:16:04.719Z,92276.28
2018-03-02T16:18:32.631Z,92265.27
2018-03-02T16:21:00.217Z,92282.70
2018-03-02T16:23:27.803Z,92268.28
2018-03-02T16:25:55.701Z,92272.98
2018-03-02T16:28:23.323Z,92278.16
2018-03-02T16:30:50.899Z,92271.16
2018-03-02T16:33:18.531Z,92254.87
2018-03-02T16:35:46.098Z,92264.39
2018-03-02T16:38:13.663Z,92255.80
2018-03-02T16:40:41.340Z,92250.95
2018-03-02T16:43:08.942Z,92254.31
2018-03-02T16:45:36.614Z,92239.14
2018-03-02T16:48:04.334Z,92236.73
2018-03-02T16:50:31.922Z,92245.84
2018-03-02T16:52:59.507Z,92252.39
2018-03-02T16:55:27.103Z,92246.30
2018-03-02T16:57:54.746Z,92256.91
2018-03-02T17:00:22.330Z,92241.67
2018-03-02T17:02:49.922Z,92249.19
2018-03-02T17:05:17.536Z,92232.70
2018-03-02T17:07:45.132Z,92232.42
2018-03-02T17:10:12.849Z,92230.77
2018-03-02T17:12:40.416Z,92229.48
2018-03-02T17:15:08.353Z,92231.90
2018-03-02T17:17:36.118Z,92235.66
2018-03-02T17:20:03.745Z,92230.35
2018-03-02T17:22:31.331Z,92232.77
2018-03-02T17:24:58.978Z,92240.83
2018-03-02T17:27:26.549Z,92233.89
2018-03-02T17:29:54.126Z,92231.77
2018-03-02T17:32:22.067Z,92234.32
2018-03-02T17:34:49.844Z,92246.73
2018-03-02T17:37:17.406Z,92242.55
2018-03-02T17:39:45.174Z,92238.67
2018-03-02T17:42:12.748Z,92228.42
2018-03-02T17:44:40.318Z,92234.27
2018-03-02T17:47:07.927Z,92230.50
2018-03-02T17:49:35.496Z,92234.27
2018-03-02T17:52:03.066Z,92229.25
2018-03-02T17:54:30.831Z,92222.25
2018-03-02T17:56:58.439Z,92238.31
2018-03-02T17:59:26.007Z,92240.79
2018-03-02T18:01:53.944Z,92238.62
2018-03-02T18:04:21.555Z,92223.77
2018-03-02T18:06:49.133Z,92221.20
2018-03-02T18:09:16.824Z,92217.09
2018-03-02T18:11:44.373Z,92224.38
2018-03-02T18:14:12.054Z,92223.20
2018-03-02T18:16:39.645Z,92199.36
2018-03-02T18:19:07.205Z,92206.24
2018-03-02T18:21:34.807Z,92201.77
2018-03-02T18:24:02.542Z,92207.78
2018-03-02T18:26:30.910Z,92221.38
2018-03-02T18:28:58.505Z,92215.18
2018-03-02T18:31:26.384Z,92216.38
2018-03-02T18:33:53.944Z,92210.23
2018-03-02T18:36:21.550Z,92209.77
2018-03-02T18:38:49.343Z,92198.22
2018-03-02T18:41:16.929Z,92193.70
2018-03-02T18:43:44.498Z,92199.53
2018-03-02T18:46:12.287Z,92198.72
2018-03-02T18:48:39.872Z,92201.17
2018-03-02T18:51:07.458Z,92195.35
2018-03-02T18:53:35.232Z,92199.89
2018-03-02T18:56:02.795Z,92181.75
2018-03-02T18:58:30.358Z,92175.50
2018-03-02T19:00:57.977Z,92170.11
2018-03-02T19:03:25.663Z,92173.39
2018-03-02T19:05:53.255Z,92168.51
2018-03-02T19:08:21.002Z,92158.63
2018-03-02T19:10:48.565Z,92150.02
2018-03-02T19:13:16.139Z,92163.98
2018-03-02T19:15:43.870Z,92150.98
2018-03-02T19:18:11.461Z,92156.49
2018-03-02T19:20:39.088Z,92151.97
2018-03-02T19:23:06.811Z,92155.32
2018-03-02T19:25:34.475Z,92157.03
2018-03-02T19:28:02.159Z,92163.34
2018-03-02T19:30:29.980Z,92170.39
2018-03-02T19:32:57.633Z,92178.66
2018-03-02T19:35:25.321Z,92172.53
2018-03-02T19:37:53.615Z,92176.70
2018-03-02T19:40:21.306Z,92171.70
2018-03-02T19:42:48.950Z,92178.78
2018-03-02T19:45:16.784Z,92172.24
2018-03-02T19:47:44.562Z,92156.23
2018-03-02T19:50:12.244Z,92156.35
2018-03-02T19:52:40.271Z,92150.19
2018-03-02T19:55:07.942Z,92153.94
2018-03-02T19:57:35.617Z,92155.53
2018-03-02T20:00:03.644Z,92144.88
2018-03-02T20:02:31.319Z,92146.18
2018-03-02T20:04:58.925Z,92152.48
2018-03-02T20:07:26.876Z,92142.71
2018-03-02T20:09:54.491Z,92143.48
2018-03-02T20:12:22.137Z,92134.36
2018-03-02T20:14:49.803Z,92133.41
2018-03-02T20:17:17.480Z,92135.87
2018-03-02T20:19:45.082Z,92126.81
2018-03-02T20:22:12.802Z,92125.53
2018-03-02T20:24:40.385Z,92111.40
2018-03-02T20:27:07.952Z,92121.03
2018-03-02T20:29:35.716Z,92107.91
2018-03-02T20:32:03.293Z,92100.30
2018-03-02T20:34:30.856Z,92073.45
2018-03-02T20:36:58.471Z,92087.12
2018-03-02T20:39:26.041Z,92069.54
2018-03-02T20:41:53.606Z,92061.58
2018-03-02T20:44:21.343Z,92049.88
2018-03-02T20:46:48.908Z,92074.59
2018-03-02T20:49:16.473Z,92058.77
2018-03-02T20:51:44.068Z,92078.12
2018-03-02T20:54:11.667Z,92088.84
2018-03-02T20:56:39.239Z,92085.62
2018-03-02T20:59:06.859Z,92061.72
2018-03-02T21:01:34.415Z,92068.93
2018-03-02T21:04:02.004Z,92066.48
2018-03-02T21:06:29.563Z,92051.28
2018-03-02T21:08:57.122Z,92060.13
2018-03-02T21:11:24.750Z,92061.38
2018-03-02T21:13:52.324Z,92058.48
2018-03-02T21:16:19.904Z,92046.13
2018-03-02T21:18:47.493Z,92046.88
2018-03-02T21:21:15.053Z,92047.36
2018-03-02T21:23:42.612Z,92035.00
2018-03-02T21:26:10.194Z,92044.00
2018-03-02T21:28:37.763Z,92060.47
2018-03-02T21:31:05.329Z,92006.53
2018-03-02T21:33:32.907Z,92038.73
2018-03-02T21:36:00.471Z,92022.11
2018-03-02T21:38:28.031Z,92028.87
2018-03-02T21:40:55.668Z,92008.31
2018-03-02T21:43:23.223Z,92012.80
2018-03-02T21:45:50.789Z,91999.39
2018-03-02T21:48:18.361Z,92006.95
2018-03-02T21:50:45.908Z,92010.84
2018-03-02T21:53:13.447Z,91981.94
2018-03-02T21:55:41.152Z,91983.80
2018-03-02T21:58:08.762Z,91984.63
2018-03-02T22:00:36.319Z,92003.98
2018-03-02T22:03:03.921Z,92007.39
2018-03-02T22:05:31.491Z,92012.91
2018-03-02T22:07:59.066Z,92014.20
2018-03-02T22:10:26.649Z,91985.78
2018-03-02T22:12:54.210Z,91982.13
2018-03-02T22:15:21.761Z,91967.33
2018-03-02T22:17:49.351Z,91963.28
2018-03-02T22:20:16.910Z,91962.84
2018-03-02T22:22:44.457Z,91934.80
2018-03-02T22:25:12.031Z,91956.19
2018-03-02T22:27:39.592Z,91968.22
2018-03-02T22:30:07.149Z,91959.70
2018-03-02T22:32:35.013Z,91944.38
2018-03-02T22:35:02.566Z,91944.86
2018-03-02T22:37:30.128Z,91949.54
2018-03-02T22:39:57.898Z,91962.01
2018-03-02T22:42:25.463Z,91950.16
2018-03-02T22:44:53.026Z,91946.16
2018-03-02T22:47:20.712Z,91958.41
2018-03-02T22:49:48.269Z,91959.84
2018-03-02T22:52:15.834Z,91941.56
2018-03-02T22:54:43.837Z,91947.77
2018-03-02T22:57:11.386Z,91939.70
2018-03-02T22:59:38.949Z,91926.55
2018-03-02T23:02:06.705Z,91945.59
2018-03-02T23:04:35.458Z,91934.20
2018-03-02T23:07:03.029Z,91949.72
2018-03-02T23:09:30.810Z,91951.41
2018-03-02T23:11:58.373Z,91951.83
2018-03-02T23:14:25.956Z,91955.95
2018-03-02T23:16:53.712Z,91952.13
2018-03-02T23:19:21.263Z,91961.18
2018-03-02T23:21:48.818Z,91938.48
2018-03-02T23:24:16.565Z,91948.19
2018-03-02T23:26:44.119Z,91941.62
2018-03-02T23:29:11.667Z,91944.95
2018-03-02T23:31:39.275Z,91983.36
2018-03-02T23:34:06.834Z,91873.14
2018-03-02T23:36:34.400Z,91948.12
2018-03-02T23:39:02.005Z,91931.18
2018-03-02T23:41:29.566Z,91912.22
2018-03-02T23:43:57.122Z,91907.37
2018-03-02T23:46:24.776Z,91940.14
2018-03-02T23:48:52.322Z,91932.09
2018-03-02T23:51:19.900Z,91922.70
2018-03-02T23:53:47.471Z,91905.27
2018-03-02T23:56:15.030Z,91918.03
2018-03-02T23:58:42.578Z,91919.66
